sensor_id;sensor_type;location;lat;lon;timestamp;P1;durP1;ratioP1;P2;durP2;ratioP2
64598;SDS011;51008;51.504;11.548;2023-03-23T00:02:30;5.22;;;2.00;;
64598;SDS011;51008;51.504;11.548;2023-03-23T00:07:32;4.85;;;1.92;;
64598;SDS011;51008;51.504;11.548;2023-03-23T00:12:34;4.18;;;1.60;;
64598;SDS011;51008;51.504;11.548;2023-03-23T00:17:35;4.47;;;1.80;;
64598;SDS011;51008;51.504;11.548;2023-03-23T00:22:36;5.47;;;1.83;;
64598;SDS011;51008;51.504;11.548;2023-03-23T00:27:37;3.63;;;1.98;;
64598;SDS011;51008;51.504;11.548;2023-03-23T00:32:38;3.53;;;1.80;;
64598;SDS011;51008;51.504;11.548;2023-03-23T00:37:39;4.97;;;2.10;;
64598;SDS011;51008;51.504;11.548;2023-03-23T00:42:40;7.22;;;1.58;;
64598;SDS011;51008;51.504;11.548;2023-03-23T00:47:41;3.35;;;1.67;;
64598;SDS011;51008;51.504;11.548;2023-03-23T00:52:42;2.92;;;1.75;;
64598;SDS011;51008;51.504;11.548;2023-03-23T00:57:46;4.82;;;1.60;;
64598;SDS011;51008;51.504;11.548;2023-03-23T01:02:47;3.63;;;1.60;;
64598;SDS011;51008;51.504;11.548;2023-03-23T01:07:48;4.13;;;1.80;;
64598;SDS011;51008;51.504;11.548;2023-03-23T01:12:49;4.30;;;1.67;;
64598;SDS011;51008;51.504;11.548;2023-03-23T01:17:50;2.13;;;1.55;;
64598;SDS011;51008;51.504;11.548;2023-03-23T01:22:51;4.97;;;1.75;;
64598;SDS011;51008;51.504;11.548;2023-03-23T01:27:52;3.95;;;1.58;;
64598;SDS011;51008;51.504;11.548;2023-03-23T01:32:54;5.85;;;1.70;;
64598;SDS011;51008;51.504;11.548;2023-03-23T01:37:55;3.08;;;1.40;;
64598;SDS011;51008;51.504;11.548;2023-03-23T01:42:56;4.22;;;1.70;;
64598;SDS011;51008;51.504;11.548;2023-03-23T01:47:59;2.67;;;1.35;;
64598;SDS011;51008;51.504;11.548;2023-03-23T01:53:06;3.83;;;1.58;;
64598;SDS011;51008;51.504;11.548;2023-03-23T01:58:09;5.75;;;1.80;;
64598;SDS011;51008;51.504;11.548;2023-03-23T02:03:11;4.03;;;1.52;;
64598;SDS011;51008;51.504;11.548;2023-03-23T02:08:13;4.40;;;1.70;;
64598;SDS011;51008;51.504;11.548;2023-03-23T02:13:16;2.97;;;1.57;;
64598;SDS011;51008;51.504;11.548;2023-03-23T02:18:20;4.40;;;2.15;;
64598;SDS011;51008;51.504;11.548;2023-03-23T02:33:44;3.10;;;1.40;;
64598;SDS011;51008;51.504;11.548;2023-03-23T02:39:08;3.95;;;1.60;;
64598;SDS011;51008;51.504;11.548;2023-03-23T02:44:13;4.93;;;1.60;;
64598;SDS011;51008;51.504;11.548;2023-03-23T02:49:16;4.30;;;1.50;;
64598;SDS011;51008;51.504;11.548;2023-03-23T02:54:18;3.33;;;1.42;;
64598;SDS011;51008;51.504;11.548;2023-03-23T02:59:21;5.53;;;1.63;;
64598;SDS011;51008;51.504;11.548;2023-03-23T03:04:23;3.08;;;1.50;;
64598;SDS011;51008;51.504;11.548;2023-03-23T03:09:33;3.97;;;1.50;;
64598;SDS011;51008;51.504;11.548;2023-03-23T03:14:51;2.25;;;1.42;;
64598;SDS011;51008;51.504;11.548;2023-03-23T03:20:00;4.45;;;1.70;;
64598;SDS011;51008;51.504;11.548;2023-03-23T03:25:04;2.85;;;1.52;;
64598;SDS011;51008;51.504;11.548;2023-03-23T03:30:07;2.83;;;1.35;;
64598;SDS011;51008;51.504;11.548;2023-03-23T03:35:15;3.95;;;1.55;;
64598;SDS011;51008;51.504;11.548;2023-03-23T03:40:17;7.50;;;1.88;;
64598;SDS011;51008;51.504;11.548;2023-03-23T03:45:20;4.75;;;1.70;;
64598;SDS011;51008;51.504;11.548;2023-03-23T03:50:21;3.40;;;1.70;;
64598;SDS011;51008;51.504;11.548;2023-03-23T03:55:22;3.10;;;1.70;;
64598;SDS011;51008;51.504;11.548;2023-03-23T04:00:24;4.30;;;1.70;;
64598;SDS011;51008;51.504;11.548;2023-03-23T04:05:25;2.67;;;1.60;;
64598;SDS011;51008;51.504;11.548;2023-03-23T04:10:27;3.17;;;1.60;;
64598;SDS011;51008;51.504;11.548;2023-03-23T04:15:30;4.63;;;1.92;;
64598;SDS011;51008;51.504;11.548;2023-03-23T04:20:32;7.55;;;1.60;;
64598;SDS011;51008;51.504;11.548;2023-03-23T04:25:33;3.70;;;1.85;;
64598;SDS011;51008;51.504;11.548;2023-03-23T04:30:34;5.50;;;1.85;;
64598;SDS011;51008;51.504;11.548;2023-03-23T04:35:42;5.78;;;1.95;;
64598;SDS011;51008;51.504;11.548;2023-03-23T04:40:50;3.60;;;1.80;;
64598;SDS011;51008;51.504;11.548;2023-03-23T04:46:05;3.95;;;1.70;;
64598;SDS011;51008;51.504;11.548;2023-03-23T04:51:07;6.80;;;1.63;;
64598;SDS011;51008;51.504;11.548;2023-03-23T04:56:08;4.30;;;1.75;;
64598;SDS011;51008;51.504;11.548;2023-03-23T05:01:16;4.93;;;1.60;;
64598;SDS011;51008;51.504;11.548;2023-03-23T05:06:26;3.85;;;1.65;;
64598;SDS011;51008;51.504;11.548;2023-03-23T05:11:33;4.95;;;1.60;;
64598;SDS011;51008;51.504;11.548;2023-03-23T05:16:35;4.85;;;1.98;;
64598;SDS011;51008;51.504;11.548;2023-03-23T05:21:36;2.15;;;1.40;;
64598;SDS011;51008;51.504;11.548;2023-03-23T05:26:38;5.20;;;1.50;;
64598;SDS011;51008;51.504;11.548;2023-03-23T05:31:47;4.75;;;1.60;;
64598;SDS011;51008;51.504;11.548;2023-03-23T05:36:49;2.72;;;1.60;;
64598;SDS011;51008;51.504;11.548;2023-03-23T05:42:22;5.82;;;1.98;;
64598;SDS011;51008;51.504;11.548;2023-03-23T05:47:55;3.17;;;1.63;;
64598;SDS011;51008;51.504;11.548;2023-03-23T05:52:56;3.30;;;1.58;;
64598;SDS011;51008;51.504;11.548;2023-03-23T05:57:58;4.18;;;1.63;;
64598;SDS011;51008;51.504;11.548;2023-03-23T06:03:08;3.72;;;1.50;;
64598;SDS011;51008;51.504;11.548;2023-03-23T06:08:22;3.90;;;1.70;;
64598;SDS011;51008;51.504;11.548;2023-03-23T06:13:24;5.90;;;1.70;;
64598;SDS011;51008;51.504;11.548;2023-03-23T06:18:29;3.88;;;1.92;;
64598;SDS011;51008;51.504;11.548;2023-03-23T06:23:53;3.55;;;1.80;;
64598;SDS011;51008;51.504;11.548;2023-03-23T06:28:55;6.20;;;2.10;;
64598;SDS011;51008;51.504;11.548;2023-03-23T06:33:56;4.30;;;1.90;;
64598;SDS011;51008;51.504;11.548;2023-03-23T06:39:00;7.05;;;2.15;;
64598;SDS011;51008;51.504;11.548;2023-03-23T06:44:16;4.53;;;2.03;;
64598;SDS011;51008;51.504;11.548;2023-03-23T06:49:17;6.68;;;2.30;;
64598;SDS011;51008;51.504;11.548;2023-03-23T06:54:25;4.15;;;1.80;;
64598;SDS011;51008;51.504;11.548;2023-03-23T06:59:26;4.80;;;2.17;;
64598;SDS011;51008;51.504;11.548;2023-03-23T07:04:27;3.80;;;2.03;;
64598;SDS011;51008;51.504;11.548;2023-03-23T07:09:38;3.75;;;1.92;;
64598;SDS011;51008;51.504;11.548;2023-03-23T07:14:39;5.03;;;1.90;;
64598;SDS011;51008;51.504;11.548;2023-03-23T07:19:40;5.35;;;2.08;;
64598;SDS011;51008;51.504;11.548;2023-03-23T07:24:45;3.63;;;2.15;;
64598;SDS011;51008;51.504;11.548;2023-03-23T07:29:54;3.72;;;2.15;;
64598;SDS011;51008;51.504;11.548;2023-03-23T07:35:00;3.40;;;2.00;;
64598;SDS011;51008;51.504;11.548;2023-03-23T07:40:13;4.28;;;2.20;;
64598;SDS011;51008;51.504;11.548;2023-03-23T07:45:18;4.75;;;2.03;;
64598;SDS011;51008;51.504;11.548;2023-03-23T07:50:19;3.78;;;2.05;;
64598;SDS011;51008;51.504;11.548;2023-03-23T07:55:21;5.97;;;2.40;;
64598;SDS011;51008;51.504;11.548;2023-03-23T08:00:35;4.80;;;2.60;;
64598;SDS011;51008;51.504;11.548;2023-03-23T08:05:41;4.05;;;2.13;;
64598;SDS011;51008;51.504;11.548;2023-03-23T08:10:48;4.15;;;2.17;;
64598;SDS011;51008;51.504;11.548;2023-03-23T08:16:06;4.80;;;2.42;;
64598;SDS011;51008;51.504;11.548;2023-03-23T08:21:27;8.00;;;2.40;;
64598;SDS011;51008;51.504;11.548;2023-03-23T08:26:51;7.38;;;2.50;;
64598;SDS011;51008;51.504;11.548;2023-03-23T08:31:54;5.38;;;2.35;;
64598;SDS011;51008;51.504;11.548;2023-03-23T08:37:27;7.15;;;2.53;;
64598;SDS011;51008;51.504;11.548;2023-03-23T08:42:54;7.78;;;2.38;;
64598;SDS011;51008;51.504;11.548;2023-03-23T08:48:14;5.35;;;2.22;;
64598;SDS011;51008;51.504;11.548;2023-03-23T08:53:27;5.80;;;2.35;;
64598;SDS011;51008;51.504;11.548;2023-03-23T08:58:51;4.50;;;2.47;;
64598;SDS011;51008;51.504;11.548;2023-03-23T09:04:12;4.18;;;2.40;;
64598;SDS011;51008;51.504;11.548;2023-03-23T09:09:31;4.20;;;2.45;;
64598;SDS011;51008;51.504;11.548;2023-03-23T09:14:32;4.28;;;2.45;;
64598;SDS011;51008;51.504;11.548;2023-03-23T09:19:34;4.47;;;2.50;;
64598;SDS011;51008;51.504;11.548;2023-03-23T09:24:35;6.30;;;2.72;;
64598;SDS011;51008;51.504;11.548;2023-03-23T09:29:36;5.28;;;2.65;;
64598;SDS011;51008;51.504;11.548;2023-03-23T09:34:37;4.85;;;2.50;;
64598;SDS011;51008;51.504;11.548;2023-03-23T09:39:38;4.63;;;2.55;;
64598;SDS011;51008;51.504;11.548;2023-03-23T09:49:54;8.32;;;2.63;;
64598;SDS011;51008;51.504;11.548;2023-03-23T09:55:00;4.43;;;2.33;;
64598;SDS011;51008;51.504;11.548;2023-03-23T10:05:41;3.38;;;2.05;;
64598;SDS011;51008;51.504;11.548;2023-03-23T10:11:07;4.55;;;2.00;;
64598;SDS011;51008;51.504;11.548;2023-03-23T10:16:09;4.95;;;1.98;;
64598;SDS011;51008;51.504;11.548;2023-03-23T10:21:14;3.83;;;1.90;;
64598;SDS011;51008;51.504;11.548;2023-03-23T10:31:35;4.43;;;1.65;;
64598;SDS011;51008;51.504;11.548;2023-03-23T10:42:25;4.03;;;1.85;;
64598;SDS011;51008;51.504;11.548;2023-03-23T10:47:30;4.72;;;2.05;;
64598;SDS011;51008;51.504;11.548;2023-03-23T10:57:39;3.60;;;2.08;;
64598;SDS011;51008;51.504;11.548;2023-03-23T11:02:43;5.00;;;2.30;;
64598;SDS011;51008;51.504;11.548;2023-03-23T11:07:50;4.95;;;2.13;;
64598;SDS011;51008;51.504;11.548;2023-03-23T11:12:57;5.45;;;2.28;;
64598;SDS011;51008;51.504;11.548;2023-03-23T11:18:00;4.65;;;1.98;;
64598;SDS011;51008;51.504;11.548;2023-03-23T11:28:11;4.57;;;2.20;;
64598;SDS011;51008;51.504;11.548;2023-03-23T11:33:12;5.05;;;2.20;;
64598;SDS011;51008;51.504;11.548;2023-03-23T11:38:18;5.07;;;2.10;;
64598;SDS011;51008;51.504;11.548;2023-03-23T11:43:22;4.60;;;2.03;;
64598;SDS011;51008;51.504;11.548;2023-03-23T11:53:32;3.17;;;2.25;;
64598;SDS011;51008;51.504;11.548;2023-03-23T11:58:57;4.25;;;2.15;;
64598;SDS011;51008;51.504;11.548;2023-03-23T12:04:20;4.80;;;2.10;;
64598;SDS011;51008;51.504;11.548;2023-03-23T12:30:39;4.93;;;2.60;;
64598;SDS011;51008;51.504;11.548;2023-03-23T12:41:06;2.97;;;1.92;;
64598;SDS011;51008;51.504;11.548;2023-03-23T12:51:54;3.17;;;1.95;;
64598;SDS011;51008;51.504;11.548;2023-03-23T12:57:26;4.03;;;1.88;;
64598;SDS011;51008;51.504;11.548;2023-03-23T13:02:34;2.95;;;1.80;;
64598;SDS011;51008;51.504;11.548;2023-03-23T13:07:43;3.47;;;1.70;;
64598;SDS011;51008;51.504;11.548;2023-03-23T13:12:47;3.33;;;1.70;;
64598;SDS011;51008;51.504;11.548;2023-03-23T13:22:59;7.72;;;2.08;;
64598;SDS011;51008;51.504;11.548;2023-03-23T13:28:14;13.40;;;2.40;;
64598;SDS011;51008;51.504;11.548;2023-03-23T13:33:17;4.68;;;1.75;;
64598;SDS011;51008;51.504;11.548;2023-03-23T13:38:25;3.50;;;1.52;;
64598;SDS011;51008;51.504;11.548;2023-03-23T13:43:29;6.13;;;1.73;;
64598;SDS011;51008;51.504;11.548;2023-03-23T13:54:05;6.28;;;2.10;;
64598;SDS011;51008;51.504;11.548;2023-03-23T14:04:30;3.72;;;1.85;;
64598;SDS011;51008;51.504;11.548;2023-03-23T14:09:33;1.85;;;1.30;;
64598;SDS011;51008;51.504;11.548;2023-03-23T14:14:41;3.38;;;1.40;;
64598;SDS011;51008;51.504;11.548;2023-03-23T14:25:00;2.95;;;1.50;;
64598;SDS011;51008;51.504;11.548;2023-03-23T14:30:16;3.22;;;1.88;;
64598;SDS011;51008;51.504;11.548;2023-03-23T14:35:26;3.92;;;2.20;;
64598;SDS011;51008;51.504;11.548;2023-03-23T14:40:30;4.03;;;1.90;;
64598;SDS011;51008;51.504;11.548;2023-03-23T14:45:32;4.22;;;1.90;;
64598;SDS011;51008;51.504;11.548;2023-03-23T14:50:37;3.58;;;1.58;;
64598;SDS011;51008;51.504;11.548;2023-03-23T14:55:43;3.95;;;1.92;;
64598;SDS011;51008;51.504;11.548;2023-03-23T15:00:52;5.50;;;1.50;;
64598;SDS011;51008;51.504;11.548;2023-03-23T15:06:04;4.35;;;1.40;;
64598;SDS011;51008;51.504;11.548;2023-03-23T15:11:21;2.92;;;1.85;;
64598;SDS011;51008;51.504;11.548;2023-03-23T15:16:26;2.80;;;1.73;;
64598;SDS011;51008;51.504;11.548;2023-03-23T15:21:33;2.70;;;1.55;;
64598;SDS011;51008;51.504;11.548;2023-03-23T15:26:44;3.35;;;1.48;;
64598;SDS011;51008;51.504;11.548;2023-03-23T15:31:47;3.97;;;1.90;;
64598;SDS011;51008;51.504;11.548;2023-03-23T15:36:51;2.53;;;1.60;;
64598;SDS011;51008;51.504;11.548;2023-03-23T15:41:55;3.20;;;1.88;;
64598;SDS011;51008;51.504;11.548;2023-03-23T15:47:02;3.05;;;1.67;;
64598;SDS011;51008;51.504;11.548;2023-03-23T15:52:23;3.88;;;1.90;;
64598;SDS011;51008;51.504;11.548;2023-03-23T15:57:25;2.20;;;1.52;;
64598;SDS011;51008;51.504;11.548;2023-03-23T16:02:26;4.80;;;1.80;;
64598;SDS011;51008;51.504;11.548;2023-03-23T16:07:27;3.15;;;1.70;;
64598;SDS011;51008;51.504;11.548;2023-03-23T16:12:28;3.55;;;1.65;;
64598;SDS011;51008;51.504;11.548;2023-03-23T16:17:29;4.03;;;1.50;;
64598;SDS011;51008;51.504;11.548;2023-03-23T16:22:30;2.80;;;1.50;;
64598;SDS011;51008;51.504;11.548;2023-03-23T16:27:31;2.92;;;1.60;;
64598;SDS011;51008;51.504;11.548;2023-03-23T16:32:32;3.85;;;1.83;;
64598;SDS011;51008;51.504;11.548;2023-03-23T16:37:33;3.13;;;1.85;;
64598;SDS011;51008;51.504;11.548;2023-03-23T16:42:34;3.78;;;1.98;;
64598;SDS011;51008;51.504;11.548;2023-03-23T16:47:35;6.35;;;1.70;;
64598;SDS011;51008;51.504;11.548;2023-03-23T16:52:37;4.05;;;1.95;;
64598;SDS011;51008;51.504;11.548;2023-03-23T16:57:42;4.95;;;1.77;;
64598;SDS011;51008;51.504;11.548;2023-03-23T17:02:43;2.92;;;1.55;;
64598;SDS011;51008;51.504;11.548;2023-03-23T17:07:44;4.55;;;1.52;;
64598;SDS011;51008;51.504;11.548;2023-03-23T17:12:46;2.92;;;1.63;;
64598;SDS011;51008;51.504;11.548;2023-03-23T17:17:47;4.05;;;1.48;;
64598;SDS011;51008;51.504;11.548;2023-03-23T17:22:48;1.98;;;1.30;;
64598;SDS011;51008;51.504;11.548;2023-03-23T17:27:49;5.93;;;1.60;;
64598;SDS011;51008;51.504;11.548;2023-03-23T17:32:50;6.63;;;1.70;;
64598;SDS011;51008;51.504;11.548;2023-03-23T17:37:51;3.92;;;1.50;;
64598;SDS011;51008;51.504;11.548;2023-03-23T17:42:52;2.60;;;1.67;;
64598;SDS011;51008;51.504;11.548;2023-03-23T17:47:53;4.47;;;2.08;;
64598;SDS011;51008;51.504;11.548;2023-03-23T17:52:54;2.90;;;1.60;;
64598;SDS011;51008;51.504;11.548;2023-03-23T17:57:55;3.97;;;1.60;;
64598;SDS011;51008;51.504;11.548;2023-03-23T18:02:56;3.13;;;1.50;;
64598;SDS011;51008;51.504;11.548;2023-03-23T18:07:57;2.83;;;1.67;;
64598;SDS011;51008;51.504;11.548;2023-03-23T18:12:58;3.78;;;1.63;;
64598;SDS011;51008;51.504;11.548;2023-03-23T18:18:00;3.03;;;1.65;;
64598;SDS011;51008;51.504;11.548;2023-03-23T18:23:01;2.75;;;1.60;;
64598;SDS011;51008;51.504;11.548;2023-03-23T18:28:02;2.70;;;1.50;;
64598;SDS011;51008;51.504;11.548;2023-03-23T18:33:03;3.05;;;2.00;;
64598;SDS011;51008;51.504;11.548;2023-03-23T18:38:04;3.20;;;2.05;;
64598;SDS011;51008;51.504;11.548;2023-03-23T18:43:05;2.85;;;1.77;;
64598;SDS011;51008;51.504;11.548;2023-03-23T18:48:06;4.50;;;2.10;;
64598;SDS011;51008;51.504;11.548;2023-03-23T18:53:07;3.67;;;1.88;;
64598;SDS011;51008;51.504;11.548;2023-03-23T18:58:09;3.38;;;1.88;;
64598;SDS011;51008;51.504;11.548;2023-03-23T19:03:11;3.10;;;1.73;;
64598;SDS011;51008;51.504;11.548;2023-03-23T19:08:12;3.08;;;1.80;;
64598;SDS011;51008;51.504;11.548;2023-03-23T19:13:13;2.90;;;1.50;;
64598;SDS011;51008;51.504;11.548;2023-03-23T19:18:14;2.85;;;1.20;;
64598;SDS011;51008;51.504;11.548;2023-03-23T19:23:16;2.00;;;1.50;;
64598;SDS011;51008;51.504;11.548;2023-03-23T19:28:18;4.63;;;1.70;;
64598;SDS011;51008;51.504;11.548;2023-03-23T19:33:19;4.40;;;1.80;;
64598;SDS011;51008;51.504;11.548;2023-03-23T19:38:20;3.40;;;2.08;;
64598;SDS011;51008;51.504;11.548;2023-03-23T19:43:22;5.85;;;2.38;;
64598;SDS011;51008;51.504;11.548;2023-03-23T19:48:23;3.55;;;2.10;;
64598;SDS011;51008;51.504;11.548;2023-03-23T19:53:25;4.45;;;2.05;;
64598;SDS011;51008;51.504;11.548;2023-03-23T19:58:26;5.40;;;2.30;;
64598;SDS011;51008;51.504;11.548;2023-03-23T20:03:27;4.68;;;2.00;;
64598;SDS011;51008;51.504;11.548;2023-03-23T20:08:28;3.80;;;1.88;;
64598;SDS011;51008;51.504;11.548;2023-03-23T20:13:30;4.63;;;1.98;;
64598;SDS011;51008;51.504;11.548;2023-03-23T20:18:32;4.45;;;2.03;;
64598;SDS011;51008;51.504;11.548;2023-03-23T20:23:33;3.15;;;1.80;;
64598;SDS011;51008;51.504;11.548;2023-03-23T20:28:35;3.17;;;1.80;;
64598;SDS011;51008;51.504;11.548;2023-03-23T20:33:36;4.03;;;2.00;;
64598;SDS011;51008;51.504;11.548;2023-03-23T20:38:38;4.97;;;2.10;;
64598;SDS011;51008;51.504;11.548;2023-03-23T20:43:39;5.82;;;2.25;;
64598;SDS011;51008;51.504;11.548;2023-03-23T20:48:42;3.40;;;2.13;;
64598;SDS011;51008;51.504;11.548;2023-03-23T20:53:43;4.65;;;2.40;;
64598;SDS011;51008;51.504;11.548;2023-03-23T20:58:44;4.65;;;2.50;;
64598;SDS011;51008;51.504;11.548;2023-03-23T21:03:44;3.00;;;1.90;;
64598;SDS011;51008;51.504;11.548;2023-03-23T21:08:45;3.22;;;2.00;;
64598;SDS011;51008;51.504;11.548;2023-03-23T21:13:46;3.97;;;2.13;;
64598;SDS011;51008;51.504;11.548;2023-03-23T21:18:47;4.60;;;1.95;;
64598;SDS011;51008;51.504;11.548;2023-03-23T21:23:48;4.03;;;2.20;;
64598;SDS011;51008;51.504;11.548;2023-03-23T21:28:49;4.53;;;1.90;;
64598;SDS011;51008;51.504;11.548;2023-03-23T21:33:50;4.53;;;2.30;;
64598;SDS011;51008;51.504;11.548;2023-03-23T21:38:51;4.38;;;2.20;;
64598;SDS011;51008;51.504;11.548;2023-03-23T21:43:52;4.53;;;2.47;;
64598;SDS011;51008;51.504;11.548;2023-03-23T21:48:53;5.32;;;2.38;;
64598;SDS011;51008;51.504;11.548;2023-03-23T21:53:54;6.05;;;1.90;;
64598;SDS011;51008;51.504;11.548;2023-03-23T21:58:56;3.70;;;2.40;;
64598;SDS011;51008;51.504;11.548;2023-03-23T22:03:57;6.32;;;2.15;;
64598;SDS011;51008;51.504;11.548;2023-03-23T22:08:58;3.45;;;2.13;;
64598;SDS011;51008;51.504;11.548;2023-03-23T22:14:00;4.40;;;2.28;;
64598;SDS011;51008;51.504;11.548;2023-03-23T22:19:01;4.78;;;2.22;;
64598;SDS011;51008;51.504;11.548;2023-03-23T22:24:02;4.32;;;2.33;;
64598;SDS011;51008;51.504;11.548;2023-03-23T22:29:04;3.50;;;2.38;;
64598;SDS011;51008;51.504;11.548;2023-03-23T22:34:05;3.88;;;2.47;;
64598;SDS011;51008;51.504;11.548;2023-03-23T22:39:07;4.57;;;2.38;;
64598;SDS011;51008;51.504;11.548;2023-03-23T22:44:13;4.22;;;2.35;;
64598;SDS011;51008;51.504;11.548;2023-03-23T22:49:15;3.85;;;2.33;;
64598;SDS011;51008;51.504;11.548;2023-03-23T22:54:16;5.57;;;2.28;;
64598;SDS011;51008;51.504;11.548;2023-03-23T22:59:17;2.75;;;1.95;;
64598;SDS011;51008;51.504;11.548;2023-03-23T23:04:18;4.22;;;2.38;;
64598;SDS011;51008;51.504;11.548;2023-03-23T23:09:19;5.95;;;2.35;;
64598;SDS011;51008;51.504;11.548;2023-03-23T23:14:20;3.78;;;2.22;;
64598;SDS011;51008;51.504;11.548;2023-03-23T23:19:20;4.35;;;2.20;;
64598;SDS011;51008;51.504;11.548;2023-03-23T23:24:21;5.90;;;2.35;;
64598;SDS011;51008;51.504;11.548;2023-03-23T23:29:23;5.03;;;2.22;;
64598;SDS011;51008;51.504;11.548;2023-03-23T23:34:25;5.38;;;2.40;;
64598;SDS011;51008;51.504;11.548;2023-03-23T23:39:26;4.63;;;2.00;;
64598;SDS011;51008;51.504;11.548;2023-03-23T23:44:27;4.03;;;2.35;;
64598;SDS011;51008;51.504;11.548;2023-03-23T23:49:28;3.83;;;1.98;;
64598;SDS011;51008;51.504;11.548;2023-03-23T23:54:29;4.32;;;2.17;;
64598;SDS011;51008;51.504;11.548;2023-03-23T23:59:30;5.57;;;2.10;;
